createdAt,value
2023-05-07T00:00:22.766Z,88.57
2023-05-07T00:02:52.700Z,88.57
2023-05-07T00:05:22.384Z,87.95
2023-05-07T00:07:53.484Z,87.70
2023-05-07T00:10:23.289Z,87.32
2023-05-07T00:12:53.280Z,87.07
2023-05-07T00:15:23.209Z,86.03
2023-05-07T00:17:53.387Z,85.71
2023-05-07T00:20:22.978Z,85.23
2023-05-07T00:22:52.794Z,85.59
2023-05-07T00:25:22.591Z,86.71
2023-05-07T00:27:52.788Z,88.27
2023-05-07T00:30:22.662Z,88.27
2023-05-07T00:32:52.480Z,87.85
2023-05-07T00:35:22.319Z,87.88
2023-05-07T00:37:52.248Z,89.13
2023-05-07T00:40:22.107Z,88.56
2023-05-07T00:42:53.617Z,88.01
2023-05-07T00:45:23.320Z,87.86
2023-05-07T00:47:53.185Z,87.74
2023-05-07T00:50:23.072Z,86.07
2023-05-07T00:52:53.140Z,88.06
2023-05-07T00:55:23.953Z,86.77
2023-05-07T00:57:53.929Z,86.37
2023-05-07T01:00:23.589Z,86.04
2023-05-07T01:02:54.283Z,87.20
2023-05-07T01:05:27.088Z,88.44
2023-05-07T01:07:58.781Z,88.31
2023-05-07T01:10:31.519Z,86.26
2023-05-07T01:13:01.507Z,86.47
2023-05-07T01:15:31.555Z,85.96
2023-05-07T01:18:02.086Z,86.83
2023-05-07T01:20:33.365Z,86.60
2023-05-07T01:23:05.028Z,87.28
2023-05-07T01:25:35.022Z,87.79
2023-05-07T01:28:07.408Z,88.35
2023-05-07T01:30:39.938Z,87.41
2023-05-07T01:33:16.472Z,88.41
2023-05-07T01:35:49.268Z,88.13
2023-05-07T01:38:19.626Z,88.13
2023-05-07T01:40:49.956Z,87.74
2023-05-07T01:43:20.960Z,86.51
2023-05-07T01:45:51.539Z,87.26
2023-05-07T01:48:21.426Z,87.31
2023-05-07T01:50:52.217Z,87.81
2023-05-07T01:53:21.795Z,87.81
2023-05-07T01:55:51.395Z,88.34
2023-05-07T01:58:22.850Z,86.36
2023-05-07T02:00:52.819Z,86.98
2023-05-07T02:03:22.769Z,87.75
2023-05-07T02:05:54.303Z,88.71
2023-05-07T02:08:28.464Z,88.29
2023-05-07T02:10:58.893Z,88.06
2023-05-07T02:13:31.716Z,88.90
2023-05-07T02:16:01.524Z,90.10
2023-05-07T02:18:32.706Z,87.86
2023-05-07T02:21:02.778Z,89.08
2023-05-07T02:23:32.650Z,87.82
2023-05-07T02:26:02.520Z,87.62
2023-05-07T02:28:32.113Z,87.62
2023-05-07T02:31:05.467Z,88.23
2023-05-07T02:33:36.243Z,87.50
2023-05-07T02:36:11.701Z,88.81
2023-05-07T02:38:49.066Z,88.50
2023-05-07T02:41:18.878Z,89.50
2023-05-07T02:43:48.945Z,89.50
2023-05-07T02:46:18.888Z,89.53
2023-05-07T02:48:50.493Z,87.31
2023-05-07T02:51:26.170Z,87.92
2023-05-07T02:53:57.130Z,89.07
2023-05-07T02:56:28.839Z,87.52
2023-05-07T02:58:58.957Z,89.01
2023-05-07T03:01:30.827Z,88.27
2023-05-07T03:04:04.906Z,87.54
2023-05-07T03:06:34.798Z,88.67
2023-05-07T03:09:05.246Z,88.22
2023-05-07T03:11:36.504Z,89.25
2023-05-07T03:14:07.522Z,90.65
2023-05-07T03:16:37.481Z,90.58
2023-05-07T03:19:07.420Z,89.46
2023-05-07T03:21:37.279Z,87.94
2023-05-07T03:24:09.168Z,88.97
2023-05-07T03:26:39.058Z,88.97
2023-05-07T03:29:08.909Z,88.67
2023-05-07T03:31:38.753Z,88.17
2023-05-07T03:34:08.603Z,89.91
2023-05-07T03:36:38.739Z,88.34
2023-05-07T03:39:09.003Z,89.78
2023-05-07T03:41:40.556Z,89.71
2023-05-07T03:44:11.633Z,89.71
2023-05-07T03:46:41.761Z,89.20
2023-05-07T03:49:12.980Z,89.37
2023-05-07T03:51:42.861Z,89.45
2023-05-07T03:54:13.051Z,89.12
2023-05-07T03:56:44.296Z,89.35
2023-05-07T03:59:15.278Z,89.92
2023-05-07T04:01:46.352Z,89.22
2023-05-07T04:04:18.169Z,87.96
2023-05-07T04:06:48.033Z,88.04
2023-05-07T04:09:17.946Z,88.22
2023-05-07T04:11:48.580Z,87.94
2023-05-07T04:14:18.558Z,87.97
2023-05-07T04:16:48.518Z,87.77
2023-05-07T04:19:18.808Z,88.01
2023-05-07T04:21:49.895Z,88.52
2023-05-07T04:24:20.068Z,88.40
2023-05-07T04:26:49.968Z,88.54
2023-05-07T04:29:20.720Z,90.67
2023-05-07T04:31:50.840Z,89.67
2023-05-07T04:34:22.123Z,88.97
2023-05-07T04:36:52.104Z,89.02
2023-05-07T04:39:22.005Z,88.11
2023-05-07T04:41:52.255Z,89.36
2023-05-07T04:44:22.511Z,88.46
2023-05-07T04:46:52.340Z,88.46
2023-05-07T04:49:22.845Z,89.00
2023-05-07T04:51:53.281Z,88.29
2023-05-07T04:54:23.650Z,88.77
2023-05-07T04:56:53.549Z,87.98
2023-05-07T04:59:23.582Z,86.96
2023-05-07T05:01:54.047Z,87.95
2023-05-07T05:04:24.128Z,86.53
2023-05-07T05:06:53.994Z,86.53
2023-05-07T05:09:24.144Z,87.16
2023-05-07T05:11:54.404Z,87.16
2023-05-07T05:14:24.672Z,86.81
2023-05-07T05:16:55.327Z,87.04
2023-05-07T05:19:25.150Z,86.60
2023-05-07T05:21:55.043Z,86.00
2023-05-07T05:24:25.224Z,85.11
2023-05-07T05:26:58.092Z,86.05
2023-05-07T05:29:28.267Z,86.03
2023-05-07T05:31:58.148Z,86.36
2023-05-07T05:34:28.511Z,85.65
2023-05-07T05:36:59.447Z,87.01
2023-05-07T05:39:29.552Z,84.78
2023-05-07T05:41:59.429Z,86.52
2023-05-07T05:44:29.188Z,86.53
2023-05-07T05:47:00.188Z,86.58
2023-05-07T05:49:30.176Z,87.05
2023-05-07T05:52:00.295Z,86.54
2023-05-07T05:54:30.389Z,86.66
2023-05-07T05:57:00.358Z,86.22
2023-05-07T05:59:30.754Z,85.90
2023-05-07T06:02:00.736Z,84.94
2023-05-07T06:04:31.058Z,84.99
2023-05-07T06:07:00.949Z,86.32
2023-05-07T06:09:31.069Z,86.47
2023-05-07T06:12:01.105Z,87.21
2023-05-07T06:14:32.230Z,88.11
2023-05-07T06:17:02.107Z,87.68
2023-05-07T06:19:31.967Z,87.59
2023-05-07T06:22:02.799Z,87.39
2023-05-07T06:24:33.442Z,86.71
2023-05-07T06:27:03.382Z,86.12
2023-05-07T06:29:34.502Z,85.24
2023-05-07T06:32:11.273Z,85.24
2023-05-07T06:34:42.813Z,84.83
2023-05-07T06:37:12.894Z,85.00
2023-05-07T06:40:00.351Z,85.51
2023-05-07T06:42:30.442Z,85.92
2023-05-07T06:45:02.270Z,86.35
2023-05-07T06:47:33.226Z,86.67
2023-05-07T06:50:04.710Z,85.35
2023-05-07T06:52:36.367Z,89.08
2023-05-07T06:55:08.815Z,86.74
2023-05-07T06:57:39.487Z,86.02
2023-05-07T07:00:11.333Z,86.57
2023-05-07T07:02:45.648Z,85.76
2023-05-07T07:05:16.427Z,85.38
2023-05-07T07:07:48.263Z,84.34
2023-05-07T07:10:17.774Z,84.36
2023-05-07T07:12:47.865Z,85.48
2023-05-07T07:15:18.351Z,85.20
2023-05-07T07:17:48.726Z,85.05
2023-05-07T07:20:18.757Z,84.91
2023-05-07T07:22:49.184Z,84.15
2023-05-07T07:25:19.188Z,82.70
2023-05-07T07:27:50.917Z,83.58
2023-05-07T07:30:20.620Z,84.37
2023-05-07T07:32:51.348Z,84.12
2023-05-07T07:35:21.076Z,83.30
2023-05-07T07:37:51.350Z,83.35
2023-05-07T07:40:21.444Z,83.24
2023-05-07T07:42:51.645Z,84.39
2023-05-07T07:45:21.830Z,81.71
2023-05-07T07:47:52.848Z,80.95
2023-05-07T07:50:35.999Z,79.99
2023-05-07T07:52:54.838Z,81.98
2023-05-07T07:55:25.746Z,83.17
2023-05-07T07:57:55.813Z,82.15
2023-05-07T08:00:25.987Z,80.50
2023-05-07T08:02:56.905Z,80.58
2023-05-07T08:05:28.570Z,80.03
2023-05-07T08:07:59.420Z,79.83
2023-05-07T08:10:33.610Z,79.82
2023-05-07T08:13:06.980Z,79.34
2023-05-07T08:15:38.471Z,79.42
2023-05-07T08:18:09.114Z,78.45
2023-05-07T08:20:40.435Z,78.00
2023-05-07T08:23:12.184Z,78.53
2023-05-07T08:25:43.516Z,78.29
2023-05-07T08:28:14.005Z,79.42
2023-05-07T08:30:43.724Z,76.98
2023-05-07T08:33:13.946Z,76.98
2023-05-07T08:35:43.936Z,78.25
2023-05-07T08:38:14.524Z,75.50
2023-05-07T08:40:44.601Z,76.04
2023-05-07T08:43:20.321Z,74.99
2023-05-07T08:45:53.726Z,72.41
2023-05-07T08:48:26.474Z,72.53
2023-05-07T08:50:58.225Z,72.68
2023-05-07T08:53:28.693Z,72.03
2023-05-07T08:55:59.578Z,72.03
2023-05-07T08:58:31.283Z,70.93
2023-05-07T09:01:07.151Z,70.93
2023-05-07T09:03:38.462Z,69.78
2023-05-07T09:06:08.727Z,69.62
2023-05-07T09:08:38.844Z,69.25
2023-05-07T09:11:08.849Z,65.66
2023-05-07T09:13:40.093Z,62.77
2023-05-07T09:16:13.827Z,62.77
2023-05-07T09:18:47.429Z,62.76
2023-05-07T09:21:18.330Z,62.76
2023-05-07T09:23:53.178Z,63.50
2023-05-07T09:26:25.316Z,63.72
2023-05-07T09:28:55.190Z,61.84
2023-05-07T09:31:26.075Z,64.12
2023-05-07T09:33:57.139Z,61.08
2023-05-07T09:36:30.299Z,61.26
2023-05-07T09:39:02.308Z,61.26
2023-05-07T09:41:33.980Z,61.85
2023-05-07T09:44:09.943Z,59.05
2023-05-07T09:46:43.341Z,58.28
2023-05-07T09:49:19.785Z,58.28
2023-05-07T09:51:54.183Z,57.81
2023-05-07T09:54:25.709Z,56.69
2023-05-07T09:56:57.078Z,54.74
2023-05-07T09:59:30.473Z,55.81
2023-05-07T10:02:05.050Z,54.72
2023-05-07T10:04:37.117Z,53.54
2023-05-07T10:07:08.915Z,52.78
2023-05-07T10:09:40.285Z,52.89
2023-05-07T10:12:14.251Z,54.38
2023-05-07T10:14:45.088Z,55.83
2023-05-07T10:17:15.619Z,54.80
2023-05-07T10:19:47.504Z,54.34
2023-05-07T10:22:20.779Z,51.58
2023-05-07T10:24:53.201Z,51.58
2023-05-07T10:27:24.121Z,53.69
2023-05-07T10:30:04.360Z,55.24
2023-05-07T10:32:49.533Z,53.19
2023-05-07T10:35:21.581Z,54.20
2023-05-07T10:37:51.307Z,53.77
2023-05-07T10:40:23.222Z,48.98
2023-05-07T10:42:57.603Z,52.33
2023-05-07T10:45:29.016Z,47.99
2023-05-07T10:48:28.966Z,47.99
2023-05-07T10:50:48.524Z,49.54
2023-05-07T10:53:25.309Z,49.68
2023-05-07T10:56:20.198Z,50.93
2023-05-07T10:58:51.689Z,50.93
2023-05-07T11:01:54.701Z,51.35
2023-05-07T11:04:29.217Z,49.38
2023-05-07T11:07:13.796Z,52.81
2023-05-07T11:09:58.796Z,52.38
2023-05-07T11:12:44.534Z,55.18
2023-05-07T11:15:43.798Z,57.54
2023-05-07T11:18:19.844Z,57.96
2023-05-07T11:20:55.714Z,58.63
2023-05-07T11:23:39.276Z,58.53
2023-05-07T11:26:13.669Z,59.01
2023-05-07T11:28:45.256Z,59.03
2023-05-07T11:31:15.873Z,58.48
2023-05-07T11:33:47.210Z,57.16
2023-05-07T11:36:21.752Z,56.99
2023-05-07T11:38:52.824Z,57.76
2023-05-07T11:41:23.690Z,61.28
2023-05-07T11:44:01.186Z,59.80
2023-05-07T11:46:31.222Z,60.29
2023-05-07T11:49:02.378Z,61.60
2023-05-07T11:51:32.856Z,62.37
2023-05-07T11:54:04.146Z,61.74
2023-05-07T11:56:36.207Z,60.35
2023-05-07T11:59:06.797Z,59.72
2023-05-07T12:01:38.443Z,61.45
2023-05-07T12:04:08.396Z,60.57
2023-05-07T12:06:39.715Z,60.57
2023-05-07T12:09:11.230Z,60.41
2023-05-07T12:11:41.034Z,58.44
2023-05-07T12:14:12.413Z,60.02
2023-05-07T12:16:43.043Z,61.64
2023-05-07T12:19:16.229Z,60.52
2023-05-07T12:21:46.186Z,58.94
2023-05-07T12:24:17.059Z,58.94
2023-05-07T12:26:46.864Z,59.63
2023-05-07T12:29:16.684Z,58.25
2023-05-07T12:31:46.626Z,58.25
2023-05-07T12:34:17.114Z,57.19
2023-05-07T12:36:48.454Z,58.52
2023-05-07T12:39:18.257Z,57.69
2023-05-07T12:41:59.527Z,57.82
2023-05-07T12:44:33.812Z,56.09
2023-05-07T12:47:06.396Z,56.94
2023-05-07T12:49:39.128Z,56.94
2023-05-07T12:52:09.150Z,57.08
2023-05-07T12:54:40.417Z,54.61
2023-05-07T12:57:11.546Z,55.70
2023-05-07T12:59:43.369Z,56.60
2023-05-07T13:02:13.232Z,55.12
2023-05-07T13:04:43.983Z,55.41
2023-05-07T13:07:13.779Z,57.00
2023-05-07T13:09:43.588Z,56.33
2023-05-07T13:12:13.705Z,55.72
2023-05-07T13:14:43.794Z,56.75
2023-05-07T13:17:14.134Z,58.83
2023-05-07T13:19:43.951Z,56.19
2023-05-07T13:22:14.176Z,56.85
2023-05-07T13:24:44.631Z,57.48
2023-05-07T13:27:14.419Z,56.85
2023-05-07T13:29:44.290Z,59.29
2023-05-07T13:32:14.155Z,58.84
2023-05-07T13:34:43.969Z,58.99
2023-05-07T13:37:14.087Z,60.03
2023-05-07T13:39:44.065Z,60.03
2023-05-07T13:42:13.965Z,60.22
2023-05-07T13:44:44.833Z,60.37
2023-05-07T13:47:14.639Z,61.03
2023-05-07T13:49:44.882Z,61.83
2023-05-07T13:52:14.690Z,60.50
2023-05-07T13:54:45.435Z,61.18
2023-05-07T13:57:14.965Z,59.96
2023-05-07T13:59:45.225Z,59.96
2023-05-07T14:02:14.816Z,58.82
2023-05-07T14:04:45.605Z,60.26
2023-05-07T14:07:15.999Z,60.18
2023-05-07T14:09:46.348Z,60.71
2023-05-07T14:12:16.501Z,60.70
2023-05-07T14:14:47.679Z,59.64
2023-05-07T14:17:18.709Z,59.27
2023-05-07T14:19:48.695Z,59.14
2023-05-07T14:22:18.517Z,60.55
2023-05-07T14:24:55.972Z,59.65
2023-05-07T14:27:19.822Z,57.75
2023-05-07T14:29:51.520Z,56.82
2023-05-07T14:32:21.618Z,57.18
2023-05-07T14:34:51.887Z,57.81
2023-05-07T14:37:21.670Z,59.36
2023-05-07T14:39:51.451Z,60.83
2023-05-07T14:42:21.177Z,61.96
2023-05-07T14:44:51.124Z,63.20
2023-05-07T14:47:20.986Z,63.91
2023-05-07T14:49:50.847Z,64.50
2023-05-07T14:52:22.419Z,66.51
2023-05-07T14:54:52.214Z,67.68
2023-05-07T14:57:21.986Z,67.54
2023-05-07T14:59:51.801Z,67.21
2023-05-07T15:02:21.938Z,68.29
2023-05-07T15:04:51.929Z,68.66
2023-05-07T15:07:21.897Z,69.62
2023-05-07T15:09:52.256Z,68.87
2023-05-07T15:12:23.991Z,69.90
2023-05-07T15:14:53.787Z,69.73
2023-05-07T15:17:24.020Z,71.68
2023-05-07T15:19:54.582Z,71.88
2023-05-07T15:22:24.431Z,72.54
2023-05-07T15:24:55.985Z,73.16
2023-05-07T15:27:25.512Z,73.67
2023-05-07T15:29:55.283Z,74.27
2023-05-07T15:32:26.231Z,75.10
2023-05-07T15:34:56.054Z,75.44
2023-05-07T15:37:25.850Z,74.95
2023-05-07T15:39:55.765Z,75.61
2023-05-07T15:42:25.391Z,76.33
2023-05-07T15:44:55.181Z,77.93
2023-05-07T15:47:24.985Z,77.76
2023-05-07T15:49:54.771Z,78.73
2023-05-07T15:52:25.024Z,78.75
2023-05-07T15:54:55.119Z,79.02
2023-05-07T15:57:26.215Z,80.16
2023-05-07T15:59:55.841Z,79.66
2023-05-07T16:02:25.910Z,78.95
2023-05-07T16:04:55.782Z,80.22
2023-05-07T16:07:26.132Z,79.68
2023-05-07T16:09:55.973Z,80.06
2023-05-07T16:12:25.792Z,78.45
2023-05-07T16:14:55.914Z,78.75
2023-05-07T16:17:26.339Z,79.58
2023-05-07T16:19:58.132Z,79.30
2023-05-07T16:22:29.272Z,79.27
2023-05-07T16:24:59.074Z,78.91
2023-05-07T16:27:28.876Z,78.34
2023-05-07T16:29:58.715Z,78.42
2023-05-07T16:32:29.995Z,77.60
2023-05-07T16:35:00.004Z,77.68
2023-05-07T16:37:29.881Z,79.15
2023-05-07T16:40:01.829Z,79.59
2023-05-07T16:42:31.723Z,80.41
2023-05-07T16:45:01.748Z,80.41
2023-05-07T16:47:32.279Z,80.32
2023-05-07T16:50:03.753Z,80.32
2023-05-07T16:52:33.758Z,79.58
2023-05-07T16:55:03.299Z,80.12
2023-05-07T16:57:33.370Z,80.12
2023-05-07T17:00:04.562Z,81.49
2023-05-07T17:02:35.665Z,82.73
2023-05-07T17:05:09.004Z,81.44
2023-05-07T17:07:38.920Z,82.91
2023-05-07T17:10:09.280Z,82.91
2023-05-07T17:12:39.185Z,81.71
2023-05-07T17:15:09.680Z,82.05
2023-05-07T17:17:41.643Z,82.25
2023-05-07T17:20:12.610Z,83.46
2023-05-07T17:22:42.347Z,84.40
2023-05-07T17:25:14.255Z,84.59
2023-05-07T17:27:43.909Z,83.83
2023-05-07T17:30:15.255Z,84.68
2023-05-07T17:32:45.261Z,83.75
2023-05-07T17:35:15.170Z,84.70
2023-05-07T17:37:46.584Z,85.78
2023-05-07T17:40:18.029Z,84.71
2023-05-07T17:42:47.969Z,85.11
2023-05-07T17:45:18.145Z,85.68
2023-05-07T17:47:48.019Z,85.49
2023-05-07T17:50:17.720Z,85.00
2023-05-07T17:52:47.538Z,83.59
2023-05-07T17:55:17.401Z,84.85
2023-05-07T17:57:47.228Z,86.07
2023-05-07T18:00:19.919Z,85.71
2023-05-07T18:02:51.348Z,87.00
2023-05-07T18:05:21.340Z,85.51
2023-05-07T18:07:51.187Z,85.85
2023-05-07T18:10:21.045Z,85.20
2023-05-07T18:12:50.927Z,85.20
2023-05-07T18:15:20.479Z,84.00
2023-05-07T18:17:50.307Z,83.28
2023-05-07T18:20:20.716Z,84.93
2023-05-07T18:22:51.374Z,85.76
2023-05-07T18:25:21.250Z,84.31
2023-05-07T18:27:51.042Z,85.74
2023-05-07T18:30:22.120Z,86.74
2023-05-07T18:32:51.981Z,85.84
2023-05-07T18:35:21.942Z,86.55
2023-05-07T18:37:51.869Z,85.22
2023-05-07T18:40:21.404Z,85.24
2023-05-07T18:42:51.201Z,85.25
2023-05-07T18:45:21.061Z,85.27
2023-05-07T18:47:50.882Z,84.84
2023-05-07T18:50:21.166Z,84.53
2023-05-07T18:52:50.966Z,84.80
2023-05-07T18:55:21.980Z,85.47
2023-05-07T18:57:53.501Z,85.37
2023-05-07T19:00:23.063Z,85.82
2023-05-07T19:02:52.877Z,84.65
2023-05-07T19:05:22.510Z,86.07
2023-05-07T19:07:52.286Z,85.62
2023-05-07T19:10:22.339Z,85.08
2023-05-07T19:12:53.969Z,85.14
2023-05-07T19:15:23.925Z,84.41
2023-05-07T19:17:54.406Z,86.06
2023-05-07T19:20:24.300Z,84.86
2023-05-07T19:22:53.824Z,85.15
2023-05-07T19:25:23.423Z,85.67
2023-05-07T19:27:53.228Z,85.51
2023-05-07T19:30:22.875Z,87.10
2023-05-07T19:32:52.773Z,85.92
2023-05-07T19:35:23.001Z,85.97
2023-05-07T19:37:52.884Z,85.70
2023-05-07T19:40:22.623Z,85.57
2023-05-07T19:42:52.445Z,86.17
2023-05-07T19:45:22.412Z,86.63
2023-05-07T19:47:52.367Z,87.12
2023-05-07T19:50:22.334Z,87.12
2023-05-07T19:52:51.832Z,87.30
2023-05-07T19:55:21.400Z,87.89
2023-05-07T19:57:51.211Z,88.42
2023-05-07T20:00:21.771Z,88.12
2023-05-07T20:02:51.745Z,87.58
2023-05-07T20:05:21.545Z,89.06
2023-05-07T20:07:51.352Z,90.01
2023-05-07T20:10:22.727Z,90.36
2023-05-07T20:12:52.695Z,89.46
2023-05-07T20:15:23.380Z,89.88
2023-05-07T20:17:53.199Z,88.85
2023-05-07T20:20:24.060Z,88.21
2023-05-07T20:22:54.411Z,88.25
2023-05-07T20:25:24.311Z,89.16
2023-05-07T20:27:54.846Z,87.79
2023-05-07T20:30:24.854Z,87.54
2023-05-07T20:32:54.753Z,88.41
2023-05-07T20:35:24.608Z,88.56
2023-05-07T20:37:54.508Z,87.81
2023-05-07T20:40:24.305Z,86.69
2023-05-07T20:42:54.409Z,88.35
2023-05-07T20:45:24.196Z,87.29
2023-05-07T20:47:54.523Z,87.49
2023-05-07T20:50:26.800Z,88.87
2023-05-07T20:52:56.695Z,89.71
2023-05-07T20:55:26.320Z,89.63
2023-05-07T20:57:56.238Z,87.99
2023-05-07T21:00:26.161Z,88.62
2023-05-07T21:02:56.170Z,87.50
2023-05-07T21:05:25.861Z,88.28
2023-05-07T21:07:56.566Z,88.30
2023-05-07T21:10:26.509Z,87.77
2023-05-07T21:12:56.479Z,88.78
2023-05-07T21:15:26.289Z,89.23
2023-05-07T21:17:56.418Z,88.69
2023-05-07T21:20:26.029Z,87.75
2023-05-07T21:22:55.869Z,87.52
2023-05-07T21:25:25.677Z,88.62
2023-05-07T21:27:55.564Z,87.49
2023-05-07T21:30:25.444Z,88.38
2023-05-07T21:32:55.734Z,87.95
2023-05-07T21:35:25.355Z,88.14
2023-05-07T21:37:55.240Z,88.19
2023-05-07T21:40:24.760Z,88.23
2023-05-07T21:42:54.840Z,90.37
2023-05-07T21:45:24.352Z,90.63
2023-05-07T21:47:53.899Z,88.87
2023-05-07T21:50:23.953Z,89.08
2023-05-07T21:52:53.445Z,89.78
2023-05-07T21:55:22.984Z,89.80
2023-05-07T21:58:04.129Z,89.69
2023-05-07T22:00:24.508Z,90.35
2023-05-07T22:02:54.375Z,90.92
2023-05-07T22:05:24.678Z,89.12
2023-05-07T22:07:54.527Z,90.44
2023-05-07T22:10:24.446Z,89.89
2023-05-07T22:12:54.261Z,89.86
2023-05-07T22:15:24.220Z,90.55
2023-05-07T22:17:54.079Z,90.68
2023-05-07T22:20:23.706Z,89.36
2023-05-07T22:22:56.080Z,87.84
2023-05-07T22:25:26.754Z,90.88
2023-05-07T22:27:56.559Z,90.83
2023-05-07T22:30:26.444Z,90.79
2023-05-07T22:32:56.116Z,89.18
2023-05-07T22:35:25.832Z,90.05
2023-05-07T22:37:55.634Z,90.05
2023-05-07T22:40:25.533Z,90.06
2023-05-07T22:42:55.338Z,91.14
2023-05-07T22:45:25.520Z,90.98
2023-05-07T22:47:55.101Z,89.75
2023-05-07T22:50:24.822Z,89.21
2023-05-07T22:52:54.656Z,91.04
2023-05-07T22:55:24.496Z,90.91
2023-05-07T22:57:54.362Z,90.57
2023-05-07T23:00:24.520Z,92.35
2023-05-07T23:02:54.562Z,91.59
2023-05-07T23:05:24.440Z,91.08
2023-05-07T23:07:54.153Z,91.42
2023-05-07T23:10:24.006Z,91.70
2023-05-07T23:12:53.857Z,91.24
2023-05-07T23:15:23.834Z,91.49
2023-05-07T23:17:53.715Z,91.88
2023-05-07T23:20:23.237Z,90.60
2023-05-07T23:22:53.029Z,90.73
2023-05-07T23:25:22.782Z,91.20
2023-05-07T23:27:52.648Z,90.69
2023-05-07T23:30:22.307Z,90.69
2023-05-07T23:32:52.193Z,91.07
2023-05-07T23:35:21.880Z,91.07
2023-05-07T23:37:51.482Z,92.48
2023-05-07T23:40:21.233Z,92.77
2023-05-07T23:42:51.118Z,92.04
2023-05-07T23:45:21.095Z,90.84
2023-05-07T23:47:51.269Z,92.80
2023-05-07T23:50:21.161Z,91.46
2023-05-07T23:52:51.005Z,92.89
2023-05-07T23:55:20.938Z,91.93
2023-05-07T23:57:50.512Z,92.31
